Allamuchy Township, New Jersey
Current Conditions -  °F | °C
As of 5:53 AM on Thursday 27 Nov 2014 (Local Time) from KSMQ Reporting Station
Overcast Overcast  
Wind Chill: 35°   Ceiling: 5000
Heat Index: 35°   Visibility: 10mi
Dew Point: 30°   Wind: 3mph
Humidity: 82%   Direction: NA
Pressure: 29.94"   Gusts: NA
Location:  40.8661°N, 74.8361°W
Report Text: KSMQ 271053Z AUTO VRB03KT 10SM OVC050 02/M01 A2994 RMK AO2 SLP142 T00171011
Loading
Personal Weather Stations






























Interactive Weather Map New forecast layout! Learn more

10-Day Weather Forecast

Advertisements
Track Severe Weather on mobile